createdAt,value
2022-11-29T00:03:22.619Z,5.32
2022-11-29T00:08:24.058Z,6.50
2022-11-29T00:13:25.416Z,5.35
2022-11-29T00:18:26.787Z,5.45
2022-11-29T00:23:28.211Z,5.70
2022-11-29T00:28:29.578Z,5.55
2022-11-29T00:33:30.991Z,6.38
2022-11-29T00:38:32.359Z,5.90
2022-11-29T00:43:33.764Z,9.15
2022-11-29T00:48:35.235Z,6.68
2022-11-29T00:53:36.675Z,6.07
2022-11-29T00:58:38.113Z,7.35
2022-11-29T01:03:39.638Z,6.82
2022-11-29T01:08:41.049Z,7.00
2022-11-29T01:13:42.502Z,6.28
2022-11-29T01:18:43.885Z,6.78
2022-11-29T01:23:45.671Z,6.97
2022-11-29T01:28:47.815Z,7.03
2022-11-29T01:33:49.248Z,9.10
2022-11-29T01:38:50.617Z,8.55
2022-11-29T01:44:13.006Z,7.90
2022-11-29T01:49:16.707Z,8.38
2022-11-29T01:54:18.119Z,9.43
2022-11-29T01:59:23.631Z,7.60
2022-11-29T02:04:25.006Z,7.45
2022-11-29T02:09:26.428Z,6.97
2022-11-29T02:14:49.409Z,7.47
2022-11-29T02:20:12.471Z,7.22
2022-11-29T02:25:54.857Z,8.13
2022-11-29T02:31:11.526Z,7.65
2022-11-29T02:36:22.112Z,7.30
2022-11-29T02:41:45.147Z,7.57
2022-11-29T02:46:55.855Z,7.25
2022-11-29T02:52:19.359Z,7.22
2022-11-29T02:57:29.594Z,8.65
2022-11-29T03:03:09.019Z,7.78
2022-11-29T03:08:48.292Z,7.45
2022-11-29T03:14:11.404Z,10.70
2022-11-29T03:19:53.858Z,9.05
2022-11-29T03:25:07.828Z,9.00
2022-11-29T03:30:11.261Z,8.25
2022-11-29T03:35:46.298Z,7.63
2022-11-29T03:41:04.042Z,9.02
2022-11-29T03:46:09.318Z,7.80
2022-11-29T03:51:36.543Z,8.52
2022-11-29T03:56:39.542Z,7.88
2022-11-29T04:02:20.591Z,8.80
2022-11-29T04:07:31.257Z,9.88
2022-11-29T04:12:57.256Z,9.18
2022-11-29T04:18:32.055Z,8.68
2022-11-29T04:23:52.627Z,9.53
2022-11-29T04:29:14.777Z,8.90
2022-11-29T04:34:24.980Z,7.57
2022-11-29T04:39:56.371Z,6.97
2022-11-29T04:45:15.973Z,8.70
2022-11-29T04:50:31.023Z,8.38
2022-11-29T04:55:41.273Z,8.30
2022-11-29T05:00:49.709Z,8.40
2022-11-29T05:05:59.303Z,7.40
2022-11-29T05:11:00.508Z,6.93
2022-11-29T05:16:31.559Z,8.18
2022-11-29T05:21:43.111Z,9.68
2022-11-29T05:27:10.227Z,7.85
2022-11-29T05:32:34.791Z,7.78
2022-11-29T05:38:01.204Z,7.63
2022-11-29T05:43:20.740Z,8.07
2022-11-29T05:48:29.811Z,6.78
2022-11-29T05:53:36.491Z,9.30
2022-11-29T05:58:48.104Z,8.43
2022-11-29T06:04:04.610Z,7.22
2022-11-29T06:09:26.116Z,7.38
2022-11-29T06:14:45.850Z,8.00
2022-11-29T06:20:19.006Z,7.28
2022-11-29T06:25:47.211Z,7.45
2022-11-29T06:31:09.497Z,7.35
2022-11-29T06:36:19.875Z,7.15
2022-11-29T06:41:22.807Z,7.68
2022-11-29T06:46:29.798Z,8.57
2022-11-29T06:52:22.220Z,6.45
2022-11-29T06:57:57.568Z,6.60
2022-11-29T07:03:06.618Z,7.28
2022-11-29T07:08:18.559Z,8.82
2022-11-29T07:13:20.272Z,7.32
2022-11-29T07:18:27.959Z,5.93
2022-11-29T07:23:38.405Z,7.28
2022-11-29T07:28:54.959Z,7.82
2022-11-29T07:34:21.028Z,7.10
2022-11-29T07:39:32.580Z,8.10
2022-11-29T07:44:58.763Z,7.95
2022-11-29T07:50:00.133Z,6.25
2022-11-29T07:55:01.995Z,7.10
2022-11-29T08:00:04.075Z,5.15
2022-11-29T08:05:05.772Z,5.80
2022-11-29T08:10:11.892Z,8.05
2022-11-29T08:15:13.472Z,6.15
2022-11-29T08:20:15.416Z,7.18
2022-11-29T08:25:16.823Z,6.13
2022-11-29T08:30:18.751Z,6.82
2022-11-29T08:35:21.424Z,6.40
2022-11-29T08:40:24.198Z,5.25
2022-11-29T08:45:25.839Z,5.88
2022-11-29T08:50:27.455Z,6.93
2022-11-29T08:55:32.349Z,4.97
2022-11-29T09:00:34.098Z,8.83
2022-11-29T09:05:36.325Z,10.65
2022-11-29T09:10:39.446Z,9.02
2022-11-29T09:15:42.005Z,8.88
2022-11-29T09:20:43.973Z,6.40
2022-11-29T09:25:48.712Z,7.25
2022-11-29T09:30:50.522Z,6.70
2022-11-29T09:35:51.992Z,7.60
2022-11-29T09:40:55.379Z,6.07
2022-11-29T09:46:26.457Z,7.07
2022-11-29T09:51:44.551Z,8.30
2022-11-29T09:56:47.263Z,8.30
2022-11-29T10:01:54.631Z,8.07
2022-11-29T10:07:21.365Z,7.88
2022-11-29T10:12:45.754Z,6.63
2022-11-29T10:17:49.557Z,4.65
2022-11-29T10:23:02.707Z,6.00
2022-11-29T10:28:04.822Z,6.82
2022-11-29T10:33:14.494Z,8.15
2022-11-29T10:38:30.700Z,10.05
2022-11-29T10:43:32.533Z,5.63
2022-11-29T10:48:33.935Z,7.05
2022-11-29T10:53:38.475Z,6.60
2022-11-29T10:59:03.146Z,6.75
2022-11-29T11:04:07.185Z,7.17
2022-11-29T11:09:20.436Z,7.30
2022-11-29T11:14:32.125Z,6.15
2022-11-29T11:19:34.095Z,5.57
2022-11-29T11:24:40.443Z,6.38
2022-11-29T11:29:42.949Z,8.55
2022-11-29T11:34:54.924Z,6.85
2022-11-29T11:39:58.110Z,8.13
2022-11-29T11:44:59.693Z,9.25
2022-11-29T11:50:03.807Z,5.20
2022-11-29T11:55:16.633Z,8.45
2022-11-29T12:01:02.972Z,8.55
2022-11-29T12:06:24.540Z,6.68
2022-11-29T12:11:25.945Z,5.35
2022-11-29T12:16:33.396Z,9.80
2022-11-29T12:21:37.476Z,5.70
2022-11-29T12:32:18.927Z,6.55
2022-11-29T12:37:35.435Z,6.85
2022-11-29T12:42:41.900Z,6.25
2022-11-29T12:48:08.940Z,7.35
2022-11-29T12:53:13.267Z,5.60
2022-11-29T12:58:41.324Z,8.13
2022-11-29T13:04:28.466Z,9.05
2022-11-29T13:09:47.983Z,6.97
2022-11-29T13:15:01.926Z,7.82
2022-11-29T13:20:41.530Z,8.80
2022-11-29T13:25:44.003Z,8.98
2022-11-29T13:30:45.375Z,8.57
2022-11-29T13:36:12.453Z,6.40
2022-11-29T13:41:26.619Z,7.53
2022-11-29T13:46:49.923Z,8.85
2022-11-29T13:52:04.028Z,7.32
2022-11-29T13:57:06.675Z,7.97
2022-11-29T14:02:34.515Z,9.55
2022-11-29T14:07:36.400Z,11.40
2022-11-29T14:12:40.741Z,12.63
2022-11-29T14:17:55.982Z,10.07
2022-11-29T14:23:07.631Z,9.55
2022-11-29T14:28:11.963Z,11.05
2022-11-29T14:33:13.171Z,11.30
2022-11-29T14:38:19.327Z,11.02
2022-11-29T14:43:29.145Z,12.10
2022-11-29T14:48:30.610Z,10.32
2022-11-29T14:53:33.737Z,11.88
2022-11-29T14:58:35.107Z,9.02
2022-11-29T15:03:38.943Z,8.88
2022-11-29T15:08:48.236Z,12.40
2022-11-29T15:14:19.206Z,12.52
2022-11-29T15:19:57.593Z,9.68
2022-11-29T15:25:12.784Z,14.65
2022-11-29T15:30:18.948Z,11.73
2022-11-29T15:35:20.431Z,9.77
2022-11-29T15:40:23.429Z,9.65
2022-11-29T15:45:35.118Z,11.43
2022-11-29T15:50:36.529Z,11.68
2022-11-29T15:55:37.899Z,10.80
2022-11-29T16:00:39.340Z,11.80
2022-11-29T16:05:40.792Z,11.55
2022-11-29T16:10:49.152Z,10.65
2022-11-29T16:16:06.825Z,13.65
2022-11-29T16:21:25.312Z,10.85
2022-11-29T16:26:30.147Z,11.27
2022-11-29T16:31:36.062Z,13.00
2022-11-29T16:36:37.531Z,12.48
2022-11-29T16:41:38.930Z,12.63
2022-11-29T16:46:40.323Z,12.00
2022-11-29T16:51:47.867Z,12.13
2022-11-29T16:56:52.496Z,11.25
2022-11-29T17:01:53.924Z,11.75
2022-11-29T17:06:55.695Z,12.57
2022-11-29T17:12:01.529Z,11.07
2022-11-29T17:22:04.265Z,12.60
2022-11-29T17:27:05.705Z,14.45
2022-11-29T17:32:07.135Z,14.00
2022-11-29T17:37:08.556Z,13.32
2022-11-29T17:42:11.947Z,11.43
2022-11-29T17:47:13.344Z,13.45
2022-11-29T17:52:14.719Z,13.75
2022-11-29T17:57:16.365Z,13.48
2022-11-29T18:02:17.791Z,13.63
2022-11-29T18:07:19.317Z,13.65
2022-11-29T18:12:22.359Z,13.80
2022-11-29T18:17:23.732Z,13.55
2022-11-29T18:22:25.097Z,14.15
2022-11-29T18:27:26.459Z,13.57
2022-11-29T18:32:27.856Z,14.20
2022-11-29T18:38:05.104Z,15.77
2022-11-29T18:42:50.943Z,14.90
2022-11-29T18:47:52.303Z,15.65
2022-11-29T18:52:55.540Z,15.20
2022-11-29T18:57:56.943Z,14.93
2022-11-29T19:02:58.352Z,14.60
2022-11-29T19:07:59.869Z,15.43
2022-11-29T19:13:01.302Z,14.55
2022-11-29T19:18:02.673Z,14.30
2022-11-29T19:23:04.045Z,15.07
2022-11-29T19:28:09.475Z,15.68
2022-11-29T19:33:15.196Z,14.27
2022-11-29T19:38:16.598Z,15.48
2022-11-29T19:43:18.117Z,15.63
2022-11-29T19:48:19.541Z,13.82
2022-11-29T19:53:20.911Z,13.05
2022-11-29T19:58:22.398Z,12.98
2022-11-29T20:03:23.796Z,14.90
2022-11-29T20:08:25.191Z,15.13
2022-11-29T20:13:26.632Z,16.30
2022-11-29T20:18:32.387Z,15.82
2022-11-29T20:23:33.861Z,17.50
2022-11-29T20:28:35.657Z,16.30
2022-11-29T20:33:37.032Z,17.08
2022-11-29T20:38:45.639Z,17.08
2022-11-29T20:43:57.886Z,14.82
2022-11-29T20:49:05.993Z,16.13
2022-11-29T20:54:10.404Z,15.52
2022-11-29T20:59:11.763Z,15.07
2022-11-29T21:04:13.220Z,16.30
2022-11-29T21:09:14.659Z,16.05
2022-11-29T21:14:16.233Z,13.70
2022-11-29T21:19:19.492Z,15.00
2022-11-29T21:24:42.592Z,14.88
2022-11-29T21:29:44.067Z,16.27
2022-11-29T21:34:45.746Z,13.52
2022-11-29T21:39:47.677Z,15.35
2022-11-29T21:44:49.257Z,17.73
2022-11-29T21:49:52.617Z,12.95
2022-11-29T21:54:55.088Z,16.75
2022-11-29T21:59:56.756Z,14.68
2022-11-29T22:04:58.132Z,14.75
2022-11-29T22:10:09.936Z,15.30
2022-11-29T22:15:19.094Z,13.33
2022-11-29T22:20:23.006Z,12.93
2022-11-29T22:25:24.391Z,14.30
2022-11-29T22:30:25.799Z,15.00
2022-11-29T22:35:27.175Z,12.40
2022-11-29T22:40:28.543Z,15.23
2022-11-29T22:45:29.914Z,13.50
2022-11-29T22:50:31.278Z,12.43
2022-11-29T22:55:32.644Z,13.80
2022-11-29T23:00:35.858Z,14.48
2022-11-29T23:05:37.288Z,12.07
2022-11-29T23:10:38.667Z,12.90
2022-11-29T23:15:40.067Z,14.32
2022-11-29T23:20:41.440Z,13.05
2022-11-29T23:25:49.427Z,12.82
2022-11-29T23:30:51.089Z,13.65
2022-11-29T23:36:01.872Z,12.65
2022-11-29T23:41:03.749Z,10.20
2022-11-29T23:46:09.661Z,11.88
2022-11-29T23:56:13.896Z,13.07
